Williamsburg, Ohio
Current Conditions -  °F | °C
As of 5:53 AM on Sunday 23 Nov 2014 (Local Time) from KLUK Reporting Station
Overcast Overcast  
Wind Chill: 44°   Ceiling: 9000
Heat Index: 44°   Visibility: 10mi
Dew Point: 37°   Wind: 0mph
Humidity: 76%   Direction: NA
Pressure: 30.02"   Gusts: NA
Location:  39.05°N, 84.05°W
Report Text: KLUK 231053Z AUTO 00000KT 10SM OVC090 07/03 A3002 RMK AO2 SLP165 T00670028
Loading
Personal Weather Stations






























Interactive Weather Map New forecast layout! Learn more

10-Day Weather Forecast

Advertisements
Track Severe Weather on mobile